Time;durP1;ratioP1;P1;durP2;ratioP2;P2;SDS_P1;SDS_P2;PMS_P1;PMS_P2;Temp;Humidity;BMP_temperature;BMP_pressure;BME280_temperature;BME280_humidity;BME280_pressure;Samples;Min_cycle;Max_cycle;Signal;HPM_P1;HPM_P2
2022/07/22 00:01:16;;;;;;;32.00;23.35;;;26.30;84.00;;;;;;5049626;28;20030;-74
2022/07/22 00:03:42;;;;;;;32.05;22.25;;;26.30;82.90;;;;;;5045133;28;20029;-73
2022/07/22 00:06:07;;;;;;;35.90;23.90;;;26.30;81.80;;;;;;5050272;28;20021;-72
2022/07/22 00:08:33;;;;;;;29.27;24.85;;;26.20;82.20;;;;;;5042686;28;20407;-74
2022/07/22 00:11:02;;;;;;;38.17;26.40;;;26.30;83.60;;;;;;5034990;28;20492;-74
2022/07/22 00:13:28;;;;;;;35.40;27.30;;;26.30;85.20;;;;;;5042345;28;20365;-73
2022/07/22 00:15:53;;;;;;;35.13;27.92;;;26.30;87.50;;;;;;5034127;28;20036;-73
2022/07/22 00:18:19;;;;;;;31.92;27.30;;;26.30;88.40;;;;;;5044537;28;20116;-74
2022/07/22 00:20:45;;;;;;;39.90;24.50;;;26.30;87.90;;;;;;5051809;28;20476;-72
2022/07/22 00:23:10;;;;;;;29.88;24.38;;;26.30;86.10;;;;;;5042439;28;20442;-74
2022/07/22 00:25:37;;;;;;;34.35;25.58;;;26.30;86.70;;;;;;5033672;28;20095;-72
2022/07/22 00:28:02;;;;;;;30.15;26.35;;;26.20;87.80;;;;;;5044284;28;20025;-74
2022/07/22 00:30:28;;;;;;;35.28;25.95;;;26.20;89.80;;;;;;5033345;28;20423;-74
2022/07/22 00:32:54;;;;;;;34.95;27.40;;;26.30;90.40;;;;;;5039530;28;20033;-74
2022/07/22 00:35:20;;;;;;;32.92;27.52;;;26.20;91.60;;;;;;5053013;28;20024;-74
2022/07/22 00:37:45;;;;;;;36.08;27.48;;;26.30;93.30;;;;;;5045041;28;20464;-74
2022/07/22 00:40:11;;;;;;;32.83;27.45;;;26.20;94.60;;;;;;5033329;28;20533;-74
2022/07/22 00:42:37;;;;;;;35.70;27.27;;;26.20;95.10;;;;;;5044147;28;20404;-75
2022/07/22 00:45:03;;;;;;;37.03;27.92;;;26.10;95.00;;;;;;5033275;28;20503;-74
2022/07/22 00:47:29;;;;;;;33.05;25.73;;;26.10;95.40;;;;;;5038269;28;20365;-75
2022/07/22 00:49:55;;;;;;;35.50;26.42;;;26.00;95.70;;;;;;5051414;28;20128;-74
2022/07/22 00:52:22;;;;;;;34.63;27.55;;;25.80;94.70;;;;;;5040548;28;20033;-74
2022/07/22 00:54:47;;;;;;;30.13;24.55;;;25.70;93.30;;;;;;5051609;28;20400;-75
2022/07/22 00:57:13;;;;;;;32.75;25.92;;;25.60;93.80;;;;;;5046363;28;20021;-75
2022/07/22 00:59:39;;;;;;;39.88;27.00;;;25.50;93.60;;;;;;5035259;28;20392;-75
2022/07/22 01:02:05;;;;;;;35.88;25.90;;;25.40;94.70;;;;;;5043195;28;20036;-75
2022/07/22 01:04:31;;;;;;;29.58;24.33;;;25.40;93.70;;;;;;5036580;28;20030;-75
2022/07/22 01:06:56;;;;;;;33.40;23.88;;;25.40;93.20;;;;;;5039296;28;20456;-75
2022/07/22 01:09:22;;;;;;;30.70;23.85;;;25.30;92.70;;;;;;5037357;28;20025;-75
2022/07/22 01:11:48;;;;;;;28.25;24.15;;;25.30;91.20;;;;;;5037882;28;20017;-75
2022/07/22 01:14:14;;;;;;;35.72;24.30;;;25.20;90.90;;;;;;5038329;28;20048;-72
2022/07/22 01:16:39;;;;;;;31.08;24.58;;;25.10;90.40;;;;;;5036626;28;20030;-74
2022/07/22 01:19:05;;;;;;;31.85;24.67;;;25.10;90.70;;;;;;5039466;28;20037;-73
2022/07/22 01:21:32;;;;;;;35.80;24.20;;;25.10;90.80;;;;;;5035503;28;20009;-74
2022/07/22 01:23:58;;;;;;;33.45;23.85;;;25.00;91.60;;;;;;5040507;28;20080;-74
2022/07/22 01:26:24;;;;;;;26.42;23.40;;;25.00;92.00;;;;;;5034917;28;20025;-74
2022/07/22 01:28:50;;;;;;;31.80;23.88;;;25.00;92.50;;;;;;5041239;28;20029;-74
2022/07/22 01:31:16;;;;;;;26.25;22.65;;;25.00;92.60;;;;;;5036009;28;20104;-74
2022/07/22 01:33:42;;;;;;;29.73;22.70;;;25.00;92.10;;;;;;5043884;28;20476;-74
2022/07/22 01:36:08;;;;;;;25.63;21.55;;;24.90;91.80;;;;;;5034558;28;20013;-74
2022/07/22 01:38:34;;;;;;;30.05;21.58;;;24.90;90.80;;;;;;5040670;28;20098;-74
2022/07/22 01:41:00;;;;;;;30.77;22.70;;;24.90;90.40;;;;;;5033441;28;20606;-74
2022/07/22 01:43:26;;;;;;;24.52;20.92;;;24.80;89.80;;;;;;5040598;28;20095;-73
2022/07/22 01:45:53;;;;;;;29.52;21.20;;;24.80;89.10;;;;;;5034057;28;20025;-74
2022/07/22 01:48:20;;;;;;;29.42;21.65;;;24.70;88.90;;;;;;5039943;28;20103;-73
2022/07/22 01:50:46;;;;;;;25.17;21.42;;;24.70;88.20;;;;;;5033033;28;20025;-73
2022/07/22 01:53:12;;;;;;;28.52;20.52;;;24.70;87.90;;;;;;5041815;28;20056;-74
2022/07/22 01:55:38;;;;;;;25.23;20.77;;;24.70;88.30;;;;;;5032254;28;20051;-74
2022/07/22 01:58:04;;;;;;;28.30;20.92;;;24.70;87.70;;;;;;5042639;28;20036;-73
2022/07/22 02:00:31;;;;;;;26.65;20.60;;;24.70;87.20;;;;;;5031963;28;20017;-74
2022/07/22 02:02:57;;;;;;;25.02;20.33;;;24.70;87.20;;;;;;5046692;28;20068;-74
2022/07/22 02:05:23;;;;;;;26.42;20.38;;;24.70;87.00;;;;;;5031768;28;20057;-73
2022/07/22 02:07:49;;;;;;;29.95;21.08;;;24.60;86.80;;;;;;5039421;28;20124;-73
2022/07/22 02:10:15;;;;;;;25.15;21.02;;;24.60;86.80;;;;;;5051575;28;20164;-73
2022/07/22 02:12:41;;;;;;;28.00;20.45;;;24.60;86.50;;;;;;5043665;28;20124;-73
2022/07/22 02:15:08;;;;;;;27.13;20.98;;;24.60;87.00;;;;;;5031545;28;20119;-73
2022/07/22 02:17:34;;;;;;;27.23;21.38;;;24.60;87.30;;;;;;5042477;28;20033;-73
2022/07/22 02:20:02;;;;;;;22.17;19.88;;;24.60;87.90;;;;;;5031443;28;20027;-73
2022/07/22 02:22:27;;;;;;;23.48;20.50;;;24.50;87.30;;;;;;5042056;28;20037;-73
2022/07/22 02:24:53;;;;;;;24.15;20.38;;;24.50;87.40;;;;;;5031984;28;20044;-74
2022/07/22 02:27:19;;;;;;;32.03;21.75;;;24.50;87.80;;;;;;5035082;28;20151;-73
2022/07/22 02:29:45;;;;;;;27.02;20.88;;;24.50;87.80;;;;;;5049419;28;20018;-73
2022/07/22 02:32:10;;;;;;;24.75;20.98;;;24.50;88.00;;;;;;5048880;28;20085;-73
2022/07/22 02:34:36;;;;;;;25.95;20.70;;;24.40;88.80;;;;;;5033902;28;20107;-73
2022/07/22 02:37:02;;;;;;;26.48;21.05;;;24.40;89.70;;;;;;5038371;28;20430;-73
2022/07/22 02:39:28;;;;;;;28.38;20.52;;;24.40;89.60;;;;;;5035090;28;20017;-73
2022/07/22 02:41:53;;;;;;;25.38;20.08;;;24.30;89.70;;;;;;5037007;28;20506;-73
2022/07/22 02:44:19;;;;;;;22.88;19.25;;;24.30;89.40;;;;;;5036214;28;20072;-73
2022/07/22 02:46:45;;;;;;;23.33;17.02;;;24.30;89.50;;;;;;5038126;28;20029;-73
2022/07/22 02:49:11;;;;;;;21.15;17.17;;;24.40;87.90;;;;;;5044696;28;20368;-73
2022/07/22 02:51:40;;;;;;;23.27;20.02;;;24.40;88.50;;;;;;5044409;28;20033;-73
2022/07/22 02:54:06;;;;;;;24.58;19.55;;;24.40;88.20;;;;;;5037969;28;20033;-73
2022/07/22 02:56:32;;;;;;;24.73;20.48;;;24.50;88.40;;;;;;5035573;28;20021;-73
2022/07/22 02:58:57;;;;;;;25.05;17.48;;;24.50;88.30;;;;;;5043915;28;20390;-74
2022/07/22 03:01:23;;;;;;;23.90;19.10;;;24.50;87.50;;;;;;5052490;28;20021;-73
2022/07/22 03:03:49;;;;;;;19.48;17.27;;;24.50;87.30;;;;;;5044779;28;20120;-73
2022/07/22 03:06:14;;;;;;;20.30;15.85;;;24.60;87.00;;;;;;5037231;28;20094;-73
2022/07/22 03:08:40;;;;;;;20.40;16.40;;;24.60;86.20;;;;;;5043850;28;20036;-73
2022/07/22 03:11:06;;;;;;;18.80;14.40;;;24.60;85.60;;;;;;5037429;28;20028;-74
2022/07/22 03:13:32;;;;;;;17.17;14.05;;;24.70;84.90;;;;;;5043599;28;20033;-73
2022/07/22 03:15:57;;;;;;;21.33;12.43;;;24.70;84.70;;;;;;5037283;28;20014;-73
2022/07/22 03:18:26;;;;;;;18.45;12.70;;;24.80;84.60;;;;;;5042966;28;20053;-73
2022/07/22 03:20:52;;;;;;;20.70;13.27;;;24.80;84.90;;;;;;5036000;28;20036;-73
2022/07/22 03:23:18;;;;;;;19.42;12.93;;;24.80;84.60;;;;;;5043317;28;20458;-73
2022/07/22 03:25:43;;;;;;;18.92;13.55;;;24.90;84.40;;;;;;5042366;28;20037;-73
2022/07/22 03:28:09;;;;;;;19.05;13.23;;;24.90;84.30;;;;;;5044671;28;20026;-73
2022/07/22 03:30:35;;;;;;;18.50;14.35;;;24.80;84.40;;;;;;5034934;28;20034;-73
2022/07/22 03:33:00;;;;;;;17.95;15.25;;;24.80;85.20;;;;;;5049642;28;20048;-73
2022/07/22 03:35:26;;;;;;;17.85;14.43;;;24.70;85.20;;;;;;5033983;28;20382;-73
2022/07/22 03:37:53;;;;;;;27.48;19.38;;;24.80;84.90;;;;;;5045534;28;20030;-73
2022/07/22 03:40:19;;;;;;;22.52;17.58;;;24.80;86.90;;;;;;5034406;28;20033;-73
2022/07/22 03:42:45;;;;;;;22.20;16.13;;;24.80;85.90;;;;;;5045335;28;20041;-73
2022/07/22 03:45:10;;;;;;;25.25;18.52;;;24.80;86.40;;;;;;5034351;28;20076;-73
2022/07/22 03:47:36;;;;;;;22.60;16.48;;;25.00;87.20;;;;;;5040048;28;20045;-73
2022/07/22 03:50:03;;;;;;;18.17;16.02;;;25.00;86.10;;;;;;5054247;28;20033;-73
2022/07/22 03:52:32;;;;;;;20.75;15.85;;;25.00;84.90;;;;;;5047810;28;20037;-74
2022/07/22 03:54:58;;;;;;;16.70;14.95;;;25.10;84.90;;;;;;5034368;28;20029;-74
2022/07/22 03:57:23;;;;;;;28.55;16.38;;;25.00;84.30;;;;;;5044202;28;20048;-74
2022/07/22 03:59:49;;;;;;;23.23;17.70;;;25.10;85.20;;;;;;5034871;28;20392;-74
2022/07/22 04:02:15;;;;;;;22.73;16.60;;;25.10;85.20;;;;;;5038497;28;20030;-74
2022/07/22 04:04:40;;;;;;;16.38;12.95;;;25.10;85.10;;;;;;5051506;28;20048;-74
2022/07/22 04:07:06;;;;;;;13.07;11.63;;;25.20;83.00;;;;;;5047567;28;20025;-73
2022/07/22 04:09:32;;;;;;;14.57;11.18;;;25.40;81.90;;;;;;5037222;28;20064;-74
2022/07/22 04:11:58;;;;;;;16.05;12.25;;;25.40;81.90;;;;;;5039484;28;20068;-74
2022/07/22 04:14:24;;;;;;;13.90;11.43;;;25.50;81.90;;;;;;5037990;28;20072;-74
2022/07/22 04:16:49;;;;;;;14.13;11.88;;;25.50;81.60;;;;;;5039265;28;20041;-74
2022/07/22 04:19:15;;;;;;;18.17;11.02;;;25.50;81.70;;;;;;5039245;28;20033;-74
2022/07/22 04:21:41;;;;;;;15.60;10.73;;;25.60;80.40;;;;;;5037995;28;20033;-74
2022/07/22 04:24:07;;;;;;;14.93;10.63;;;25.70;80.10;;;;;;5040449;28;20021;-74
2022/07/22 04:26:33;;;;;;;14.15;10.52;;;25.80;81.10;;;;;;5036747;28;20026;-74
2022/07/22 04:28:59;;;;;;;12.50;9.68;;;25.80;80.10;;;;;;5041126;28;20083;-74
2022/07/22 04:31:25;;;;;;;15.98;9.68;;;25.90;80.40;;;;;;5037862;28;20026;-74
2022/07/22 04:33:50;;;;;;;14.20;9.98;;;25.90;79.40;;;;;;5044421;28;20075;-74
2022/07/22 04:36:16;;;;;;;13.77;11.20;;;25.90;80.70;;;;;;5048471;28;20053;-74
2022/07/22 04:38:42;;;;;;;16.05;10.93;;;25.90;81.60;;;;;;5042063;28;20503;-77
2022/07/22 04:41:08;;;;;;;13.75;10.45;;;26.00;81.10;;;;;;5035692;28;20013;-77
2022/07/22 04:43:33;;;;;;;14.48;11.07;;;26.00;80.10;;;;;;5041903;28;20041;-76
2022/07/22 04:45:59;;;;;;;14.05;9.88;;;26.10;79.10;;;;;;5035624;28;20455;-76
2022/07/22 04:48:25;;;;;;;15.75;10.13;;;26.10;79.50;;;;;;5041698;28;20376;-76
2022/07/22 04:50:51;;;;;;;14.70;10.30;;;26.30;78.60;;;;;;5034682;28;20024;-76
2022/07/22 04:53:16;;;;;;;16.20;10.05;;;26.30;78.50;;;;;;5043441;28;20044;-76
2022/07/22 04:55:45;;;;;;;13.68;10.15;;;26.40;77.30;;;;;;5051032;28;20025;-76
2022/07/22 04:58:10;;;;;;;13.88;9.45;;;26.50;77.50;;;;;;5043051;28;20036;-76
2022/07/22 05:00:36;;;;;;;13.70;8.93;;;26.60;77.30;;;;;;5033034;28;20025;-77
2022/07/22 05:03:02;;;;;;;10.38;9.18;;;26.60;75.40;;;;;;5040035;28;20059;-76
2022/07/22 05:05:28;;;;;;;25.65;13.45;;;26.80;76.70;;;;;;5052133;28;20490;-76
2022/07/22 05:07:53;;;;;;;15.95;11.90;;;26.80;81.70;;;;;;5044096;28;20060;-77
2022/07/22 05:10:19;;;;;;;15.32;11.90;;;26.80;78.60;;;;;;5032715;28;20021;-77
2022/07/22 05:12:45;;;;;;;13.75;10.25;;;26.90;78.70;;;;;;5043695;28;20033;-77
2022/07/22 05:15:11;;;;;;;15.70;11.60;;;26.90;77.60;;;;;;5032702;28;20029;-76
2022/07/22 05:17:36;;;;;;;17.50;12.68;;;26.90;77.90;;;;;;5043496;28;20039;-77
2022/07/22 05:20:04;;;;;;;17.77;13.07;;;27.00;80.60;;;;;;5032596;28;20458;-76
2022/07/22 05:22:29;;;;;;;18.55;11.52;;;27.00;82.50;;;;;;5040630;28;20029;-76
2022/07/22 05:24:55;;;;;;;17.83;8.73;;;27.00;77.70;;;;;;5032680;28;20117;-76
2022/07/22 05:27:21;;;;;;;16.10;11.27;;;27.00;76.30;;;;;;5037747;28;20030;-76
2022/07/22 05:29:46;;;;;;;10.65;9.25;;;27.10;77.80;;;;;;5050812;28;20044;-76
2022/07/22 05:32:13;;;;;;;15.57;9.73;;;27.20;74.40;;;;;;5041760;28;20037;-76
2022/07/22 05:34:39;;;;;;;14.95;9.18;;;27.30;76.10;;;;;;5049659;28;20482;-76
2022/07/22 05:37:04;;;;;;;20.80;13.20;;;27.40;75.70;;;;;;5040906;28;20315;-77
2022/07/22 05:39:30;;;;;;;11.60;7.20;;;27.50;74.50;;;;;;5048352;28;20116;-76
2022/07/22 05:41:56;;;;;;;9.00;6.82;;;27.50;73.40;;;;;;5043021;28;20610;-76
2022/07/22 05:44:21;;;;;;;11.68;6.85;;;27.60;72.70;;;;;;5047194;28;20129;-77
2022/07/22 05:46:47;;;;;;;16.88;10.25;;;27.60;72.70;;;;;;5045542;28;20040;-77
2022/07/22 05:49:13;;;;;;;25.33;13.50;;;27.70;75.70;;;;;;5037920;28;20047;-76
2022/07/22 05:51:38;;;;;;;16.23;9.75;;;27.80;76.80;;;;;;5037114;28;20458;-76
2022/07/22 05:54:04;;;;;;;14.45;9.60;;;27.90;74.30;;;;;;5044745;28;20041;-76
2022/07/22 05:56:30;;;;;;;11.98;7.75;;;27.90;74.70;;;;;;5045418;28;20021;-76
2022/07/22 05:58:56;;;;;;;11.63;7.30;;;27.90;74.00;;;;;;5040022;28;20068;-76
2022/07/22 06:01:22;;;;;;;11.13;8.15;;;28.00;72.80;;;;;;5035420;28;20068;-77
2022/07/22 06:03:48;;;;;;;15.90;9.13;;;28.10;72.80;;;;;;5042691;28;20057;-77
2022/07/22 06:06:14;;;;;;;11.95;7.28;;;28.30;74.50;;;;;;5044182;28;20018;-77
2022/07/22 06:08:40;;;;;;;8.38;6.72;;;28.50;71.10;;;;;;5040304;28;20438;-76
2022/07/22 06:11:06;;;;;;;9.43;7.10;;;28.60;70.40;;;;;;5034160;28;20100;-76
2022/07/22 06:13:33;;;;;;;11.48;6.90;;;28.60;71.10;;;;;;5038886;28;20480;-76
2022/07/22 06:15:59;;;;;;;14.25;8.10;;;28.60;70.20;;;;;;5033909;28;20025;-76
2022/07/22 06:18:28;;;;;;;21.63;8.95;;;28.70;71.40;;;;;;5040018;28;20112;-77
2022/07/22 06:20:53;;;;;;;18.58;8.27;;;28.80;72.00;;;;;;5032562;28;20024;-77
2022/07/22 06:23:19;;;;;;;12.07;5.03;;;28.80;72.30;;;;;;5042388;28;20025;-77
2022/07/22 06:25:45;;;;;;;14.20;5.38;;;28.90;68.90;;;;;;5048158;28;20026;-77
2022/07/22 06:28:11;;;;;;;14.05;5.38;;;29.00;67.70;;;;;;5039955;28;20530;-77
2022/07/22 06:30:38;;;;;;;10.68;4.88;;;29.10;67.50;;;;;;5031584;28;20017;-76
2022/07/22 06:33:04;;;;;;;22.05;5.45;;;29.20;66.70;;;;;;5039708;28;20120;-76
2022/07/22 06:35:30;;;;;;;21.00;4.80;;;29.30;66.70;;;;;;5050328;28;20108;-77
2022/07/22 06:37:55;;;;;;;13.93;4.80;;;29.40;66.60;;;;;;5041104;28;20047;-78
2022/07/22 06:40:24;;;;;;;11.75;4.60;;;29.50;66.20;;;;;;5051322;28;20037;-76
2022/07/22 06:42:50;;;;;;;9.27;5.05;;;29.60;66.10;;;;;;5039156;28;20411;-75
2022/07/22 06:45:17;;;;;;;11.65;4.57;;;29.70;65.80;;;;;;5051194;28;20045;-76
2022/07/22 06:47:42;;;;;;;6.63;4.68;;;29.80;66.10;;;;;;5040368;28;20391;-78
2022/07/22 06:50:09;;;;;;;7.45;4.47;;;29.80;65.40;;;;;;5051360;28;20024;-76
2022/07/22 06:52:38;;;;;;;12.50;4.72;;;30.00;65.50;;;;;;5037410;28;20038;-76
2022/07/22 06:55:05;;;;;;;8.30;4.32;;;30.10;65.90;;;;;;5051081;28;20553;-74
2022/07/22 06:57:31;;;;;;;6.45;4.20;;;30.20;65.20;;;;;;5037229;28;20056;-75
2022/07/22 06:59:56;;;;;;;6.43;4.18;;;30.20;64.90;;;;;;5051115;28;20531;-74
2022/07/22 07:02:22;;;;;;;6.25;3.90;;;30.30;64.80;;;;;;5039251;28;20479;-75
2022/07/22 07:04:48;;;;;;;7.50;3.75;;;30.30;64.50;;;;;;5049789;28;20652;-75
2022/07/22 07:07:14;;;;;;;8.00;4.30;;;30.40;64.50;;;;;;5041010;28;20044;-75
2022/07/22 07:09:39;;;;;;;7.45;3.80;;;30.40;63.70;;;;;;5048269;28;20260;-74
2022/07/22 07:12:06;;;;;;;5.05;3.95;;;30.50;64.00;;;;;;5039206;28;21092;-76
2022/07/22 07:14:31;;;;;;;5.70;3.58;;;30.60;63.50;;;;;;5047429;28;20119;-77
2022/07/22 07:16:57;;;;;;;6.75;3.78;;;30.70;63.20;;;;;;5041969;28;20108;-75
2022/07/22 07:19:23;;;;;;;4.18;3.65;;;30.70;63.30;;;;;;5044881;28;20033;-77
2022/07/22 07:21:48;;;;;;;7.80;4.35;;;30.80;63.10;;;;;;5044349;28;20036;-76
2022/07/22 07:24:17;;;;;;;5.45;3.20;;;30.90;62.50;;;;;;5036559;28;20021;-75
2022/07/22 07:26:43;;;;;;;3.80;3.40;;;31.00;62.00;;;;;;5035185;28;20436;-75
2022/07/22 07:29:08;;;;;;;8.35;3.67;;;31.10;60.70;;;;;;5050802;28;20033;-75
2022/07/22 07:31:34;;;;;;;8.02;3.78;;;31.10;61.40;;;;;;5045673;28;20507;-75
2022/07/22 07:34:00;;;;;;;6.90;3.17;;;31.20;61.30;;;;;;5041131;28;20521;-74
2022/07/22 07:36:25;;;;;;;4.28;3.45;;;31.30;61.10;;;;;;5043866;28;20013;-73
2022/07/22 07:38:51;;;;;;;5.85;3.63;;;31.40;61.20;;;;;;5037674;28;20100;-72
2022/07/22 07:41:17;;;;;;;4.57;3.30;;;31.40;60.40;;;;;;5031815;28;20501;-74
2022/07/22 07:43:43;;;;;;;11.32;3.28;;;31.50;60.00;;;;;;5038451;28;20129;-73
2022/07/22 07:46:09;;;;;;;3.42;3.13;;;31.60;59.90;;;;;;5033525;28;20092;-73
2022/07/22 07:48:35;;;;;;;6.43;3.53;;;31.70;60.00;;;;;;5041296;28;20104;-74
2022/07/22 07:51:01;;;;;;;3.95;3.45;;;31.80;60.10;;;;;;5033630;28;20441;-74
2022/07/22 07:53:26;;;;;;;5.32;3.35;;;31.80;59.90;;;;;;5040865;28;20033;-74
2022/07/22 07:55:52;;;;;;;5.68;3.50;;;31.90;60.10;;;;;;5031738;28;20192;-75
2022/07/22 07:58:21;;;;;;;10.40;3.78;;;32.00;59.30;;;;;;5042746;28;20124;-74
2022/07/22 08:00:46;;;;;;;8.23;3.72;;;32.10;59.40;;;;;;5048868;28;20048;-73
2022/07/22 08:03:12;;;;;;;9.50;3.58;;;32.10;59.40;;;;;;5040884;28;20013;-74
2022/07/22 08:05:38;;;;;;;8.38;3.55;;;32.10;58.90;;;;;;5050158;28;20522;-74
2022/07/22 08:08:05;;;;;;;7.53;3.60;;;32.20;59.20;;;;;;5043057;28;20017;-73
2022/07/22 08:10:31;;;;;;;9.05;3.42;;;32.40;59.30;;;;;;5031791;28;20126;-72
2022/07/22 08:12:58;;;;;;;14.90;4.22;;;32.50;58.90;;;;;;5042881;28;20072;-72
2022/07/22 08:15:25;;;;;;;36.17;22.42;;;32.60;58.10;;;;;;5033960;28;20108;-75
2022/07/22 08:17:51;;;;;;;24.23;16.25;;;32.40;77.10;;;;;;5044931;28;20025;-74
2022/07/22 08:20:18;;;;;;;20.48;13.48;;;32.30;72.60;;;;;;5033858;28;20195;-74
2022/07/22 08:22:44;;;;;;;38.60;22.63;;;32.30;71.10;;;;;;5044782;28;20035;-74
2022/07/22 08:25:09;;;;;;;43.28;30.67;;;32.20;79.60;;;;;;5033613;28;20030;-75
2022/07/22 08:27:35;;;;;;;52.53;32.08;;;32.10;83.60;;;;;;5039235;28;20049;-75
2022/07/22 08:30:04;;;;;;;38.67;31.25;;;31.90;87.10;;;;;;5053456;28;20025;-75
2022/07/22 08:32:30;;;;;;;51.63;34.03;;;31.70;89.70;;;;;;5048187;28;20372;-75
2022/07/22 08:34:56;;;;;;;43.70;33.40;;;31.40;91.10;;;;;;5033585;28;20025;-75
2022/07/22 08:37:22;;;;;;;40.80;33.17;;;31.20;91.50;;;;;;5037216;28;20021;-75
2022/07/22 08:39:47;;;;;;;43.65;34.08;;;31.00;92.50;;;;;;5051966;28;20073;-74
2022/07/22 08:42:13;;;;;;;44.45;34.40;;;30.80;93.90;;;;;;5041808;28;20045;-75
2022/07/22 08:44:39;;;;;;;50.55;36.42;;;30.60;96.50;;;;;;5050814;28;20164;-73
2022/07/22 08:47:05;;;;;;;48.00;37.78;;;30.50;98.70;;;;;;5046788;28;20088;-74
2022/07/22 08:49:31;;;;;;;43.30;35.28;;;30.50;99.90;;;;;;5035229;28;20029;-74
2022/07/22 08:51:57;;;;;;;44.92;33.53;;;30.40;99.90;;;;;;5038265;28;20533;-73
2022/07/22 08:54:22;;;;;;;39.78;30.95;;;30.30;99.40;;;;;;5037709;28;20037;-73
2022/07/22 08:56:54;;;;;;;44.67;31.05;;;30.30;97.80;;;;;;5037907;28;20562;-75
2022/07/22 08:59:20;;;;;;;39.75;29.55;;;30.30;97.70;;;;;;5037924;28;20029;-75
2022/07/22 09:02:08;;;;;;;31.98;26.85;;;30.30;96.50;;;;;;5037369;28;20037;-75
2022/07/22 09:05:02;;;;;;;37.17;26.90;;;30.40;96.10;;;;;;5049479;28;20170;-74
2022/07/22 09:07:31;;;;;;;39.08;26.92;;;30.50;95.70;;;;;;5039322;28;20120;-74
2022/07/22 09:09:58;;;;;;;31.40;24.17;;;30.60;94.70;;;;;;5032956;28;20408;-75
2022/07/22 09:12:27;;;;;;;36.00;24.13;;;30.70;94.30;;;;;;5042780;28;20025;-75
2022/07/22 09:14:54;;;;;;;33.13;23.50;;;30.80;93.90;;;;;;5033210;28;20040;-75
2022/07/22 09:17:31;;;;;;;30.98;23.08;;;30.80;93.90;;;;;;5042299;28;20478;-74
2022/07/22 09:19:59;;;;;;;36.78;21.33;;;30.90;92.90;;;;;;5032736;28;20056;-73
2022/07/22 09:22:34;;;;;;;28.10;22.35;;;31.00;92.10;;;;;;5041566;28;20025;-76
2022/07/22 09:25:30;;;;;;;37.85;24.33;;;31.10;93.20;;;;;;5031222;28;20120;-74
2022/07/22 09:28:20;;;;;;;32.53;24.15;;;31.20;93.50;;;;;;5043758;28;20040;-75
2022/07/22 09:30:53;;;;;;;29.38;22.33;;;31.20;93.20;;;;;;5032444;28;20040;-74
2022/07/22 09:33:20;;;;;;;36.60;22.25;;;31.20;92.10;;;;;;5043065;28;20219;-75
2022/07/22 09:35:47;;;;;;;28.50;20.23;;;31.00;92.40;;;;;;5050265;28;20391;-74
2022/07/22 09:38:14;;;;;;;28.17;17.55;;;31.00;90.00;;;;;;5041953;28;20193;-74
2022/07/22 09:40:45;;;;;;;21.15;16.20;;;30.90;86.70;;;;;;5043802;28;20018;-74
2022/07/22 09:43:17;;;;;;;20.38;15.05;;;30.90;86.50;;;;;;5035700;28;20132;-74
2022/07/22 09:45:57;;;;;;;21.50;14.90;;;31.00;83.60;;;;;;5050184;28;20544;-75
2022/07/22 09:48:23;;;;;;;18.55;12.95;;;31.00;82.10;;;;;;5042224;28;20017;-75
2022/07/22 09:50:50;;;;;;;17.98;12.43;;;31.10;79.40;;;;;;5050133;28;20032;-74
2022/07/22 09:53:18;;;;;;;24.50;15.65;;;31.30;78.80;;;;;;5041212;28;20524;-76
2022/07/22 09:55:44;;;;;;;22.30;16.60;;;31.40;84.30;;;;;;5031723;28;20095;-74
2022/07/22 09:58:11;;;;;;;24.52;17.38;;;31.20;90.50;;;;;;5036234;28;20013;-73
2022/07/22 10:00:38;;;;;;;30.92;21.58;;;31.10;93.60;;;;;;5050023;28;20021;-73
2022/07/22 10:03:14;;;;;;;30.63;24.73;;;31.10;99.90;;;;;;5039295;28;20013;-73
2022/07/22 10:05:45;;;;;;;29.30;22.30;;;30.80;99.90;;;;;;5043126;28;20051;-74
2022/07/22 10:08:11;;;;;;;26.48;21.10;;;30.80;98.50;;;;;;5037560;28;20079;-74
2022/07/22 10:10:38;;;;;;;29.30;20.92;;;31.00;91.60;;;;;;5043748;28;20061;-74
2022/07/22 10:13:06;;;;;;;25.35;21.02;;;31.20;88.70;;;;;;5037497;28;20041;-75
2022/07/22 10:15:33;;;;;;;27.65;20.58;;;31.40;85.30;;;;;;5032298;28;20096;-75
2022/07/22 10:18:08;;;;;;;24.55;19.77;;;31.60;84.50;;;;;;5036866;28;20028;-73
2022/07/22 10:20:35;;;;;;;23.52;18.85;;;31.70;80.30;;;;;;5033258;28;20498;-74
2022/07/22 10:23:03;;;;;;;25.45;17.55;;;31.80;79.50;;;;;;5031919;28;20029;-74
2022/07/22 10:25:48;;;;;;;20.92;16.83;;;31.90;76.20;;;;;;5031231;28;20029;-74
2022/07/22 10:28:32;;;;;;;23.33;17.02;;;32.10;76.10;;;;;;5038702;28;20086;-76
2022/07/22 10:31:15;;;;;;;28.73;16.73;;;32.30;76.80;;;;;;5037680;28;20017;-74
2022/07/22 10:33:43;;;;;;;17.40;15.57;;;32.40;75.70;;;;;;5039091;28;20376;-76
2022/07/22 10:36:09;;;;;;;13.50;12.20;;;32.50;73.60;;;;;;5032345;28;20060;-74
2022/07/22 10:38:35;;;;;;;15.95;12.82;;;32.60;71.10;;;;;;5039941;28;20049;-74
2022/07/22 10:41:07;;;;;;;13.27;11.65;;;32.70;70.20;;;;;;5033274;28;20104;-75
2022/07/22 10:43:42;;;;;;;13.60;12.10;;;32.70;69.50;;;;;;5039784;28;20060;-75
2022/07/22 10:46:09;;;;;;;15.98;11.95;;;32.80;69.90;;;;;;5033559;28;20022;-75
2022/07/22 10:48:37;;;;;;;21.77;11.60;;;33.00;69.80;;;;;;5039694;28;20026;-74
2022/07/22 10:51:18;;;;;;;16.30;11.18;;;32.90;70.50;;;;;;5033460;28;20052;-74
2022/07/22 10:53:51;;;;;;;15.65;11.43;;;33.00;68.80;;;;;;5039821;28;20029;-74
2022/07/22 10:56:29;;;;;;;17.95;12.00;;;32.90;69.80;;;;;;5034359;28;20032;-75
2022/07/22 10:59:12;;;;;;;16.88;12.40;;;33.10;71.20;;;;;;5042353;28;20025;-74
2022/07/22 11:01:43;;;;;;;15.02;10.52;;;33.10;70.70;;;;;;5048935;28;20027;-73
2022/07/22 11:04:21;;;;;;;15.20;10.38;;;33.30;68.20;;;;;;5037519;28;20064;-74
2022/07/22 11:06:52;;;;;;;15.52;11.77;;;33.20;67.30;;;;;;5036004;28;20148;-76
2022/07/22 11:09:30;;;;;;;21.15;11.10;;;33.20;67.40;;;;;;5034901;28;20025;-75
2022/07/22 11:11:56;;;;;;;14.90;12.05;;;33.30;67.40;;;;;;5034662;28;20041;-74
2022/07/22 11:14:32;;;;;;;17.90;12.38;;;33.30;67.50;;;;;;5045908;28;20033;-73
2022/07/22 11:17:10;;;;;;;16.75;11.80;;;33.20;67.50;;;;;;5044151;28;20509;-74
2022/07/22 11:19:37;;;;;;;22.95;16.27;;;33.10;68.00;;;;;;5034178;28;20033;-74
2022/07/22 11:22:07;;;;;;;21.20;18.45;;;33.10;73.10;;;;;;5041941;28;20518;-74
2022/07/22 11:24:34;;;;;;;21.90;18.88;;;32.90;76.80;;;;;;5038053;28;20022;-75
2022/07/22 11:27:01;;;;;;;29.73;20.88;;;32.80;74.70;;;;;;5041382;28;20391;-75
2022/07/22 11:29:35;;;;;;;24.88;20.98;;;32.80;76.10;;;;;;5038777;28;20349;-75
2022/07/22 11:32:03;;;;;;;26.65;23.58;;;32.60;74.50;;;;;;5045809;28;20108;-74
2022/07/22 11:34:32;;;;;;;38.47;25.48;;;32.70;76.60;;;;;;5038242;28;20396;-75
2022/07/22 11:36:58;;;;;;;35.30;26.73;;;32.60;74.80;;;;;;5040954;28;20033;-74
2022/07/22 11:39:27;;;;;;;37.10;28.42;;;32.60;77.20;;;;;;5039021;28;20032;-74
2022/07/22 11:41:59;;;;;;;42.47;29.45;;;32.40;77.00;;;;;;5038848;28;20038;-74
2022/07/22 11:44:27;;;;;;;29.83;25.00;;;32.30;78.30;;;;;;5049968;28;20083;-75
2022/07/22 11:46:58;;;;;;;31.17;24.00;;;32.40;77.70;;;;;;5047771;28;20033;-74
2022/07/22 11:49:24;;;;;;;27.48;21.58;;;32.50;75.20;;;;;;5038861;28;20022;-74
2022/07/22 11:51:51;;;;;;;40.17;24.02;;;32.60;73.00;;;;;;5039878;28;20120;-75
2022/07/22 11:54:17;;;;;;;25.52;18.63;;;32.60;75.00;;;;;;5039632;28;20037;-75
2022/07/22 11:56:43;;;;;;;44.38;17.65;;;32.80;71.00;;;;;;5038628;28;20079;-76
2022/07/22 11:59:13;;;;;;;27.05;16.05;;;33.10;69.80;;;;;;5040560;28;20025;-75
2022/07/22 12:01:40;;;;;;;17.77;13.00;;;33.10;69.40;;;;;;5042346;28;20027;-75
2022/07/22 12:04:08;;;;;;;25.75;15.30;;;33.20;65.80;;;;;;5040993;28;20380;-75
2022/07/22 12:06:38;;;;;;;16.67;13.50;;;33.20;66.90;;;;;;5037082;28;20047;-75
2022/07/22 12:09:16;;;;;;;23.55;13.15;;;33.20;65.90;;;;;;5041228;28;20032;-76
2022/07/22 12:11:44;;;;;;;21.70;14.07;;;33.80;64.10;;;;;;5038125;28;20033;-75
2022/07/22 12:14:13;;;;;;;21.52;13.43;;;34.80;62.90;;;;;;5040305;28;20040;-75
2022/07/22 12:16:40;;;;;;;22.20;14.20;;;35.90;60.60;;;;;;5036261;28;20036;-74
2022/07/22 12:19:08;;;;;;;20.27;15.07;;;37.00;60.10;;;;;;5040778;28;20025;-75
2022/07/22 12:21:57;;;;;;;18.42;13.68;;;38.00;58.50;;;;;;5036948;28;20494;-75
2022/07/22 12:24:41;;;;;;;23.27;14.98;;;38.70;57.20;;;;;;5038324;28;20037;-79
2022/07/22 12:27:08;;;;;;;18.10;14.55;;;39.50;56.90;;;;;;5041546;28;20086;-76
2022/07/22 12:29:37;;;;;;;16.45;13.90;;;40.10;56.10;;;;;;5036678;28;20026;-75
2022/07/22 12:32:06;;;;;;;18.13;13.77;;;40.70;55.60;;;;;;5040097;28;20048;-75